Аэропорт: Большое Савино. Пермь

ICAO: USPP

METAR:
2019/01/21 23:00
USPP 212300Z 17002MPS 9999 -SN SCT046 M10/M12 Q1006 R21/450350 NOSIG RMK QFE744
METAR:
2019/01/21 21:21
TAF USPP 211957Z 2121/2221 20006MPS 3100 -SN BKN011 OVC100 
      TEMPO 2121/2203 1400 SN VV005 
      BECMG 2203/2205 19003MPS 
      BECMG 2205/2207 6000 -SN